メインページ
METAR-TAF:

METAR-TAF

空港 :

シンガポール, シンガポール

シンガポール・チャンギ国際空港

緯度: 01-22N, 経度: 103-59E, 海抜: 5m

現時点の気象観測

当レポートは5分前の13:00(UTC)に作成
変向風 2kt
気温 27°C
湿度 89%
気圧 1009 hPa
視程10km以上
高度2000ftの雲はほとんどない
高度15000ftの千切れ雲あり

METAR: WSSS 241300Z VRB02KT 9999 FEW020 BKN150 27/25 Q1009 NOSIG

時間: 21:05 (13:05 UTC)

予報

当レポートは2時間5分前の11:00(UTC)に作成
予報は24日の 12時(UTC)から 25日の 18時(UTC)まで有効
の風 7kt
視程: 8000m
高度1800ftの雲はほとんどない, 積乱雲.
高度2000ftの雲は散在している
25日の 06時(UTC)から 25日の 10時(UTC)まで一時的に
視程: 3000m
高度1200ftの雲はほとんどない, 積乱雲.
高度1500ftの千切れ雲あり
激しい雷雨, 雨

TAF: WSSS 241100Z 2412/2518 35007KT 8000 FEW018CB SCT020 TEMPO 2506/2510 3000 TSRA FEW012CB BKN015

4,000以上の空港の気象観測と天気予報(METAR報とTAF報)

利用可能な観測所は地図上に黄色い丸と赤い丸で示す。

丸の上にカーソルを重ねると観測所名を参照できる。

次にクリックすると気象観測と天気予報を参照できる。

マップの切り替え:黒色「×」印の緑ボタンをクリックして拡大、「-」印の緑ボタンをクリックして縮小、緑色の三角印をクリックして隣りの地図に切り替え


METAR-TAF: